createdAt,value
2022-12-06T00:01:30.684Z,100087.56
2022-12-06T00:04:01.133Z,100085.56
2022-12-06T00:06:32.888Z,100090.06
2022-12-06T00:09:00.576Z,100087.38
2022-12-06T00:11:44.957Z,100083.22
2022-12-06T00:14:15.702Z,100084.22
2022-12-06T00:16:42.614Z,100083.88
2022-12-06T00:19:12.857Z,100092.72
2022-12-06T00:21:41.221Z,100090.06
2022-12-06T00:24:11.480Z,100083.34
2022-12-06T00:26:41.863Z,100083.31
2022-12-06T00:29:13.387Z,100084.84
2022-12-06T00:31:40.773Z,100081.00
2022-12-06T00:34:08.059Z,100082.53
2022-12-06T00:36:39.371Z,100092.41
2022-12-06T00:39:11.343Z,100084.88
2022-12-06T00:41:39.024Z,100089.06
2022-12-06T00:44:06.761Z,100081.03
2022-12-06T00:46:35.457Z,100088.88
2022-12-06T00:49:05.701Z,100084.03
2022-12-06T00:51:34.685Z,100080.69
2022-12-06T00:54:01.898Z,100072.81
2022-12-06T00:56:30.815Z,100079.53
2022-12-06T00:58:58.013Z,100075.84
2022-12-06T01:01:27.535Z,100069.47
2022-12-06T01:03:58.189Z,100065.63
2022-12-06T01:06:29.225Z,100062.13
2022-12-06T01:08:59.216Z,100065.63
2022-12-06T01:11:27.858Z,100065.81
2022-12-06T01:13:56.826Z,100068.50
2022-12-06T01:16:28.190Z,100056.44
2022-12-06T01:18:58.412Z,100068.31
2022-12-06T01:21:27.259Z,100061.97
2022-12-06T01:23:54.352Z,100066.66
2022-12-06T01:26:24.909Z,100072.50
2022-12-06T01:28:52.207Z,100071.16
2022-12-06T01:31:21.252Z,100069.63
2022-12-06T01:33:48.433Z,100075.28
2022-12-06T01:36:20.340Z,100071.63
2022-12-06T01:38:50.768Z,100072.47
2022-12-06T01:41:18.438Z,100070.81
2022-12-06T01:43:47.076Z,100061.81
2022-12-06T01:46:28.357Z,100064.13
2022-12-06T01:49:08.229Z,100060.78
2022-12-06T01:51:36.584Z,100057.47
2022-12-06T01:54:10.296Z,100065.13
2022-12-06T01:56:38.863Z,100054.44
2022-12-06T01:59:08.020Z,100052.25
2022-12-06T02:01:39.179Z,100052.56
2022-12-06T02:04:07.387Z,100053.06
2022-12-06T02:06:34.652Z,100063.91
2022-12-06T02:09:06.061Z,100061.06
2022-12-06T02:11:35.704Z,100056.94
2022-12-06T02:14:09.532Z,100056.78
2022-12-06T02:17:04.810Z,100043.72
2022-12-06T02:20:18.908Z,100046.41
2022-12-06T02:23:35.137Z,100052.06
2022-12-06T02:26:37.662Z,100051.75
2022-12-06T02:29:46.104Z,100046.91
2022-12-06T02:32:24.112Z,100048.03
2022-12-06T02:34:59.469Z,100047.22
2022-12-06T02:37:34.264Z,100048.56
2022-12-06T02:40:07.943Z,100050.56
2022-12-06T02:42:44.493Z,100041.75
2022-12-06T02:45:19.034Z,100034.56
2022-12-06T02:47:51.902Z,100038.91
2022-12-06T02:50:25.196Z,100040.56
2022-12-06T02:52:58.289Z,100029.69
2022-12-06T02:55:26.602Z,100032.38
2022-12-06T02:57:54.758Z,100031.38
2022-12-06T03:00:37.164Z,100029.84
2022-12-06T03:03:53.151Z,100027.00
2022-12-06T03:06:51.146Z,100026.66
2022-12-06T03:09:36.492Z,100024.81
2022-12-06T03:12:12.254Z,100028.50
2022-12-06T03:14:51.022Z,100026.69
2022-12-06T03:17:34.730Z,100020.97
2022-12-06T03:20:11.960Z,100021.78
2022-12-06T03:22:46.405Z,100017.28
2022-12-06T03:25:14.866Z,100020.00
2022-12-06T03:27:44.964Z,100011.97
2022-12-06T03:30:15.899Z,100013.31
2022-12-06T03:32:48.858Z,100020.34
2022-12-06T03:35:25.724Z,100014.97
2022-12-06T03:38:04.587Z,100010.94
2022-12-06T03:40:36.948Z,100010.28
2022-12-06T03:43:05.243Z,100004.59
2022-12-06T03:45:40.332Z,99997.03
2022-12-06T03:48:12.772Z,99997.53
2022-12-06T03:50:47.593Z,99994.19
2022-12-06T03:53:17.420Z,99999.56
2022-12-06T03:55:44.462Z,99995.19
2022-12-06T03:58:11.757Z,99991.84
2022-12-06T04:00:39.049Z,99991.50
2022-12-06T04:03:05.973Z,99987.13
2022-12-06T04:05:32.917Z,99988.44
2022-12-06T04:08:01.111Z,99992.13
2022-12-06T04:10:28.130Z,99987.13
2022-12-06T04:12:54.918Z,99985.97
2022-12-06T04:15:23.254Z,99992.84
2022-12-06T04:17:50.239Z,99988.88
2022-12-06T04:20:17.433Z,99983.69
2022-12-06T04:22:44.180Z,99981.34
2022-12-06T04:25:12.251Z,99977.34
2022-12-06T04:27:39.421Z,99978.19
2022-12-06T04:30:09.275Z,99974.53
2022-12-06T04:32:36.027Z,99977.22
2022-12-06T04:35:02.958Z,99975.19
2022-12-06T04:37:30.068Z,99975.53
2022-12-06T04:39:56.793Z,99966.50
2022-12-06T04:42:25.203Z,99962.81
2022-12-06T04:44:52.032Z,99962.66
2022-12-06T04:47:19.502Z,99959.66
2022-12-06T04:49:46.545Z,99957.13
2022-12-06T04:52:14.259Z,99957.47
2022-12-06T04:54:42.005Z,99951.47
2022-12-06T04:57:11.992Z,99953.94
2022-12-06T04:59:43.138Z,99951.09
2022-12-06T05:02:14.755Z,99952.13
2022-12-06T05:04:42.032Z,99953.78
2022-12-06T05:07:09.656Z,99951.91
2022-12-06T05:09:36.652Z,99951.44
2022-12-06T05:12:03.805Z,99943.41
2022-12-06T05:14:30.913Z,99949.28
2022-12-06T05:16:59.983Z,99951.13
2022-12-06T05:19:27.005Z,99945.94
2022-12-06T05:21:53.959Z,99945.94
2022-12-06T05:24:20.825Z,99955.28
2022-12-06T05:26:47.565Z,99950.09
2022-12-06T05:29:14.548Z,99954.13
2022-12-06T05:31:41.490Z,99951.59
2022-12-06T05:34:10.791Z,99945.28
2022-12-06T05:36:37.768Z,99956.28
2022-12-06T05:39:04.549Z,99948.09
2022-12-06T05:41:31.849Z,99949.41
2022-12-06T05:43:58.581Z,99948.22
2022-12-06T05:46:25.508Z,99958.13
2022-12-06T05:48:52.337Z,99961.78
2022-12-06T05:51:20.500Z,99956.44
2022-12-06T05:53:47.236Z,99955.97
2022-12-06T05:56:14.085Z,99953.28
2022-12-06T05:58:41.057Z,99953.97
2022-12-06T06:01:09.798Z,99960.50
2022-12-06T06:03:42.232Z,99956.97
2022-12-06T06:06:12.486Z,99946.44
2022-12-06T06:08:40.747Z,99955.66
2022-12-06T06:11:07.817Z,99949.47
2022-12-06T06:13:34.741Z,99953.63
2022-12-06T06:16:01.537Z,99951.63
2022-12-06T06:18:28.710Z,99956.63
2022-12-06T06:20:59.136Z,99955.16
2022-12-06T06:23:29.589Z,99962.16
2022-12-06T06:25:57.740Z,99963.31
2022-12-06T06:28:24.661Z,99960.81
2022-12-06T06:30:51.611Z,99962.47
2022-12-06T06:33:18.775Z,99966.13
2022-12-06T06:35:45.480Z,99964.09
2022-12-06T06:38:12.377Z,99968.13
2022-12-06T06:40:39.175Z,99964.28
2022-12-06T06:43:07.289Z,99962.91
2022-12-06T06:45:34.695Z,99970.59
2022-12-06T06:48:01.488Z,99963.53
2022-12-06T06:50:28.516Z,99961.00
2022-12-06T06:52:55.261Z,99969.22
2022-12-06T06:55:22.061Z,99967.06
2022-12-06T06:57:48.902Z,99961.06
2022-12-06T07:00:19.115Z,99965.25
2022-12-06T07:02:46.122Z,99963.91
2022-12-06T07:05:13.280Z,99963.88
2022-12-06T07:07:40.168Z,99971.78
2022-12-06T07:10:08.583Z,99968.44
2022-12-06T07:12:35.605Z,99964.31
2022-12-06T07:15:02.382Z,99963.81
2022-12-06T07:17:31.109Z,99964.94
2022-12-06T07:19:58.460Z,99959.25
2022-12-06T07:22:25.565Z,99964.09
2022-12-06T07:24:52.653Z,99963.75
2022-12-06T07:27:19.555Z,99959.94
2022-12-06T07:29:46.321Z,99958.75
2022-12-06T07:32:13.067Z,99966.75
2022-12-06T07:34:41.485Z,99958.41
2022-12-06T07:37:08.263Z,99974.59
2022-12-06T07:39:35.256Z,99973.06
2022-12-06T07:42:02.317Z,99962.66
2022-12-06T07:44:41.259Z,99967.84
2022-12-06T07:47:08.330Z,99976.69
2022-12-06T07:49:35.138Z,99972.66
2022-12-06T07:52:03.679Z,99962.06
2022-12-06T07:54:30.401Z,99967.94
2022-12-06T07:56:57.191Z,99967.44
2022-12-06T07:59:25.184Z,99967.78
2022-12-06T08:01:53.181Z,99970.78
2022-12-06T08:04:21.176Z,99965.44
2022-12-06T08:06:48.064Z,99960.22
2022-12-06T08:09:16.189Z,99967.38
2022-12-06T08:11:43.010Z,99965.84
2022-12-06T08:14:10.811Z,99959.28
2022-12-06T08:16:37.686Z,99957.81
2022-12-06T08:19:04.504Z,99954.41
2022-12-06T08:21:31.528Z,99957.38
2022-12-06T08:23:58.553Z,99958.72
2022-12-06T08:26:26.762Z,99954.34
2022-12-06T08:28:53.753Z,99959.88
2022-12-06T08:31:23.455Z,99970.09
2022-12-06T08:33:51.593Z,99968.78
2022-12-06T08:36:24.078Z,99966.94
2022-12-06T08:38:52.735Z,99967.13
2022-12-06T08:41:20.600Z,99973.47
2022-12-06T08:43:48.783Z,99970.25
2022-12-06T08:46:17.945Z,99977.13
2022-12-06T08:48:44.756Z,99976.28
2022-12-06T08:51:11.546Z,99972.59
2022-12-06T08:53:38.365Z,99973.44
2022-12-06T08:56:05.973Z,99978.97
2022-12-06T08:58:32.747Z,99981.31
2022-12-06T09:01:01.326Z,99989.38
2022-12-06T09:03:29.082Z,99980.16
2022-12-06T09:05:55.892Z,99978.78
2022-12-06T09:08:22.748Z,99978.13
2022-12-06T09:10:49.543Z,99983.16
2022-12-06T09:13:16.305Z,99984.84
2022-12-06T09:15:43.212Z,99979.31
2022-12-06T09:18:11.422Z,99988.50
2022-12-06T09:20:39.856Z,99990.16
2022-12-06T09:23:06.941Z,99993.31
2022-12-06T09:25:33.900Z,99983.63
2022-12-06T09:28:00.766Z,99987.97
2022-12-06T09:30:28.661Z,99986.91
2022-12-06T09:32:55.646Z,99986.41
2022-12-06T09:35:25.336Z,99982.25
2022-12-06T09:37:53.242Z,99978.91
2022-12-06T09:40:32.097Z,99978.72
2022-12-06T09:43:22.825Z,99977.72
2022-12-06T09:46:24.455Z,99972.38
2022-12-06T09:49:28.422Z,99975.34
2022-12-06T09:52:19.172Z,99980.50
2022-12-06T09:55:05.766Z,99977.38
2022-12-06T09:57:44.649Z,99978.19
2022-12-06T10:00:26.200Z,99983.28
2022-12-06T10:03:26.237Z,99969.56
2022-12-06T10:06:00.184Z,99971.88
2022-12-06T10:08:51.798Z,99981.56
2022-12-06T10:11:41.790Z,99976.75
2022-12-06T10:14:28.410Z,99979.06
2022-12-06T10:17:08.715Z,99978.38
2022-12-06T10:19:57.917Z,99972.00
2022-12-06T10:22:41.006Z,99967.28
2022-12-06T10:25:18.893Z,99971.28
2022-12-06T10:27:58.874Z,99968.59
2022-12-06T10:30:26.133Z,99968.81
2022-12-06T10:33:00.425Z,99963.97
2022-12-06T10:35:54.445Z,99958.81
2022-12-06T10:38:32.510Z,99963.69
2022-12-06T10:41:12.746Z,99966.03
2022-12-06T10:43:54.113Z,99960.19
2022-12-06T10:46:31.009Z,99963.22
2022-12-06T10:49:08.944Z,99959.53
2022-12-06T10:51:43.509Z,99959.44
2022-12-06T10:54:25.950Z,99962.47
2022-12-06T10:57:00.288Z,99959.09
2022-12-06T10:59:37.173Z,99962.97
2022-12-06T11:02:24.861Z,99960.59
2022-12-06T11:05:00.203Z,99956.94
2022-12-06T11:07:37.485Z,99965.31
2022-12-06T11:10:19.218Z,99963.63
2022-12-06T11:12:54.614Z,99964.47
2022-12-06T11:15:26.512Z,99970.00
2022-12-06T11:18:04.029Z,99965.94
2022-12-06T11:20:39.769Z,99963.63
2022-12-06T11:23:19.300Z,99964.22
2022-12-06T11:26:12.536Z,99964.56
2022-12-06T11:28:43.893Z,99959.69
2022-12-06T11:31:25.562Z,99961.19
2022-12-06T11:33:53.310Z,99959.97
2022-12-06T11:36:21.341Z,99961.84
2022-12-06T11:38:48.478Z,99957.13
2022-12-06T11:41:23.897Z,99961.28
2022-12-06T11:43:55.130Z,99960.13
2022-12-06T11:46:24.574Z,99957.75
2022-12-06T11:48:52.213Z,99964.09
2022-12-06T11:51:22.981Z,99953.81
2022-12-06T11:54:00.861Z,99946.66
2022-12-06T11:56:31.505Z,99947.88
2022-12-06T11:59:21.455Z,99944.13
2022-12-06T12:01:51.831Z,99951.13
2022-12-06T12:04:39.833Z,99949.75
2022-12-06T12:07:16.547Z,99948.28
2022-12-06T12:09:52.254Z,99945.25
2022-12-06T12:12:23.045Z,99941.72
2022-12-06T12:14:58.077Z,99943.28
2022-12-06T12:17:31.231Z,99951.13
2022-12-06T12:20:04.608Z,99943.94
2022-12-06T12:22:37.830Z,99940.41
2022-12-06T12:25:24.890Z,99937.56
2022-12-06T12:27:54.600Z,99937.03
2022-12-06T12:30:32.918Z,99938.69
2022-12-06T12:33:21.971Z,99938.03
2022-12-06T12:35:54.008Z,99933.50
2022-12-06T12:38:28.308Z,99942.06
2022-12-06T12:41:00.014Z,99931.88
2022-12-06T12:43:31.805Z,99951.31
2022-12-06T12:46:15.230Z,99951.84
2022-12-06T12:48:46.169Z,99945.16
2022-12-06T12:51:32.592Z,99945.69
2022-12-06T12:54:03.407Z,99946.66
2022-12-06T12:56:35.360Z,99941.31
2022-12-06T12:59:16.345Z,99942.84
2022-12-06T13:01:51.687Z,99937.50
2022-12-06T13:04:33.341Z,99937.63
2022-12-06T13:07:05.855Z,99941.31
2022-12-06T13:09:46.515Z,99933.78
2022-12-06T13:12:23.217Z,99935.94
2022-12-06T13:14:58.307Z,99936.97
2022-12-06T13:17:31.815Z,99935.25
2022-12-06T13:19:58.933Z,99932.91
2022-12-06T13:22:30.952Z,99925.56
2022-12-06T13:25:07.626Z,99929.09
2022-12-06T13:27:42.434Z,99926.59
2022-12-06T13:30:18.025Z,99927.72
2022-12-06T13:32:53.276Z,99923.03
2022-12-06T13:35:28.235Z,99928.22
2022-12-06T13:37:58.057Z,99927.28
2022-12-06T13:40:49.491Z,99929.28
2022-12-06T13:43:56.371Z,99936.28
2022-12-06T13:46:31.383Z,99935.78
2022-12-06T13:49:03.592Z,99930.59
2022-12-06T13:51:46.862Z,99930.94
2022-12-06T13:54:40.992Z,99935.53
2022-12-06T13:57:30.129Z,99932.00
2022-12-06T13:59:57.041Z,99931.63
2022-12-06T14:02:51.281Z,99930.16
2022-12-06T14:06:07.352Z,99923.31
2022-12-06T14:08:42.769Z,99933.50
2022-12-06T14:11:18.726Z,99939.50
2022-12-06T14:13:48.650Z,99935.00
2022-12-06T14:16:29.197Z,99935.06
2022-12-06T14:18:56.463Z,99931.19
2022-12-06T14:21:30.454Z,99928.78
2022-12-06T14:23:57.791Z,99932.63
2022-12-06T14:26:28.326Z,99933.25
2022-12-06T14:28:58.372Z,99934.63
2022-12-06T14:31:30.426Z,99936.28
2022-12-06T14:33:57.622Z,99937.63
2022-12-06T14:36:29.506Z,99938.09
2022-12-06T14:39:06.192Z,99938.94
2022-12-06T14:41:37.726Z,99943.81
2022-12-06T14:44:14.014Z,99936.00
2022-12-06T14:46:42.393Z,99937.84
2022-12-06T14:49:18.475Z,99940.34
2022-12-06T14:51:46.782Z,99939.16
2022-12-06T14:54:19.552Z,99940.19
2022-12-06T14:56:47.019Z,99927.97
2022-12-06T14:59:38.970Z,99924.28
2022-12-06T15:02:23.620Z,99924.75
2022-12-06T15:04:51.213Z,99925.94
2022-12-06T15:07:41.991Z,99930.13
2022-12-06T15:10:24.579Z,99930.94
2022-12-06T15:12:52.971Z,99925.56
2022-12-06T15:15:39.901Z,99920.22
2022-12-06T15:18:23.846Z,99918.88
2022-12-06T15:20:52.016Z,99930.41
2022-12-06T15:23:36.130Z,99933.25
2022-12-06T15:26:06.407Z,99924.94
2022-12-06T15:28:34.092Z,99925.94
2022-12-06T15:31:01.738Z,99924.28
2022-12-06T15:33:29.059Z,99923.25
2022-12-06T15:35:55.862Z,99924.09
2022-12-06T15:38:22.662Z,99927.78
2022-12-06T15:40:53.530Z,99924.75
2022-12-06T15:43:29.061Z,99930.59
2022-12-06T15:45:58.148Z,99924.59
2022-12-06T15:48:25.067Z,99924.22
2022-12-06T15:50:51.884Z,99926.91
2022-12-06T15:53:22.424Z,99930.94
2022-12-06T15:55:52.409Z,99932.00
2022-12-06T15:58:23.205Z,99932.56
2022-12-06T16:00:50.387Z,99936.22
2022-12-06T16:03:17.514Z,99943.91
2022-12-06T16:05:44.698Z,99944.44
2022-12-06T16:08:11.594Z,99957.03
2022-12-06T16:11:10.318Z,99944.25
2022-12-06T16:13:27.189Z,99949.25
2022-12-06T16:15:54.031Z,99947.25
2022-12-06T16:18:20.861Z,99951.78
2022-12-06T16:20:48.935Z,99942.91
2022-12-06T16:23:18.693Z,99949.94
2022-12-06T16:25:46.777Z,99940.88
2022-12-06T16:28:14.989Z,99947.72
2022-12-06T16:30:44.091Z,99951.25
2022-12-06T16:33:17.614Z,99952.72
2022-12-06T16:35:45.477Z,99965.50
2022-12-06T16:38:14.108Z,99953.09
2022-12-06T16:40:45.670Z,99955.75
2022-12-06T16:43:13.068Z,99955.13
2022-12-06T16:45:44.394Z,99948.91
2022-12-06T16:48:16.480Z,99952.97
2022-12-06T16:50:45.841Z,99953.63
2022-12-06T16:53:13.206Z,99957.81
2022-12-06T16:55:40.086Z,99953.44
2022-12-06T16:58:07.326Z,99953.63
2022-12-06T17:00:34.507Z,99953.81
2022-12-06T17:03:02.770Z,99951.94
2022-12-06T17:05:29.704Z,99954.28
2022-12-06T17:07:56.940Z,99948.91
2022-12-06T17:10:23.929Z,99950.56
2022-12-06T17:12:50.784Z,99946.75
2022-12-06T17:15:20.489Z,99949.25
2022-12-06T17:17:48.339Z,99939.56
2022-12-06T17:20:18.379Z,99941.06
2022-12-06T17:22:45.829Z,99937.56
2022-12-06T17:25:14.113Z,99929.53
2022-12-06T17:27:41.000Z,99936.72
2022-12-06T17:30:14.614Z,99938.09
2022-12-06T17:32:41.998Z,99927.38
2022-12-06T17:35:08.999Z,99931.03
2022-12-06T17:37:37.275Z,99927.38
2022-12-06T17:40:05.085Z,99930.22
2022-12-06T17:42:32.127Z,99935.41
2022-12-06T17:44:58.974Z,99929.22
2022-12-06T17:47:26.613Z,99937.06
2022-12-06T17:49:53.410Z,99930.22
2022-12-06T17:52:20.420Z,99935.75
2022-12-06T17:54:48.634Z,99934.75
2022-12-06T17:57:17.361Z,99939.25
2022-12-06T17:59:46.086Z,99936.88
2022-12-06T18:02:16.052Z,99941.41
2022-12-06T18:04:43.872Z,99934.88
2022-12-06T18:07:11.079Z,99941.72
2022-12-06T18:09:38.166Z,99936.88
2022-12-06T18:12:08.128Z,99944.94
2022-12-06T18:14:35.417Z,99944.75
2022-12-06T18:17:02.245Z,99942.25
2022-12-06T18:19:29.264Z,99949.44
2022-12-06T18:21:56.163Z,99946.13
2022-12-06T18:24:25.727Z,99937.06
2022-12-06T18:26:54.634Z,99954.34
2022-12-06T18:29:24.223Z,99950.13
2022-12-06T18:31:52.421Z,99951.34
2022-12-06T18:34:20.432Z,99945.13
2022-12-06T18:36:47.717Z,99946.66
2022-12-06T18:39:18.231Z,99942.44
2022-12-06T18:41:46.426Z,99947.53
2022-12-06T18:44:13.697Z,99945.25
2022-12-06T18:46:42.296Z,99952.97
2022-12-06T18:49:12.168Z,99959.16
2022-12-06T18:51:39.171Z,99952.53
2022-12-06T18:54:07.290Z,99949.34
2022-12-06T18:56:35.658Z,99953.84
2022-12-06T18:59:06.326Z,99958.19
2022-12-06T19:01:36.622Z,99956.47
2022-12-06T19:04:07.542Z,99962.84
2022-12-06T19:06:37.967Z,99961.69
2022-12-06T19:09:08.734Z,99964.84
2022-12-06T19:11:36.864Z,99971.38
2022-12-06T19:14:04.834Z,99963.97
2022-12-06T19:16:36.514Z,99964.72
2022-12-06T19:19:14.270Z,99972.91
2022-12-06T19:21:43.578Z,99970.25
2022-12-06T19:24:12.508Z,99968.06
2022-12-06T19:26:39.547Z,99962.53
2022-12-06T19:29:06.279Z,99956.88
2022-12-06T19:31:33.194Z,99955.31
2022-12-06T19:34:00.334Z,99959.66
2022-12-06T19:36:31.053Z,99951.09
2022-12-06T19:39:00.779Z,99963.50
2022-12-06T19:41:28.631Z,99952.97
2022-12-06T19:43:55.849Z,99960.31
2022-12-06T19:46:26.263Z,99956.63
2022-12-06T19:48:55.866Z,99955.44
2022-12-06T19:51:23.332Z,99955.94
2022-12-06T19:53:51.892Z,99966.03
2022-12-06T19:56:18.690Z,99961.63
2022-12-06T19:58:46.892Z,99965.63
2022-12-06T20:01:17.664Z,99962.06
2022-12-06T20:03:44.653Z,99960.06
2022-12-06T20:06:18.202Z,99950.84
2022-12-06T20:08:47.136Z,99952.19
2022-12-06T20:11:18.060Z,99957.81
2022-12-06T20:13:44.858Z,99947.78
2022-12-06T20:16:12.013Z,99953.16
2022-12-06T20:18:38.815Z,99958.50
2022-12-06T20:21:06.098Z,99947.78
2022-12-06T20:23:32.812Z,99958.16
2022-12-06T20:25:59.865Z,99947.44
2022-12-06T20:28:28.045Z,99952.44
2022-12-06T20:30:55.291Z,99952.44
2022-12-06T20:33:22.218Z,99947.09
2022-12-06T20:35:49.214Z,99953.44
2022-12-06T20:38:15.968Z,99954.44
2022-12-06T20:40:42.825Z,99957.13
2022-12-06T20:43:10.256Z,99945.78
2022-12-06T20:45:38.399Z,99950.13
2022-12-06T20:48:05.558Z,99946.13
2022-12-06T20:50:32.597Z,99947.59
2022-12-06T20:52:59.373Z,99952.97
2022-12-06T20:55:26.187Z,99952.97
2022-12-06T20:57:53.235Z,99954.97
2022-12-06T21:00:21.639Z,99953.88
2022-12-06T21:02:50.096Z,99957.22
2022-12-06T21:05:18.899Z,99956.69
2022-12-06T21:07:46.073Z,99954.88
2022-12-06T21:10:12.903Z,99949.34
2022-12-06T21:12:39.640Z,99944.34
2022-12-06T21:15:07.788Z,99951.84
2022-12-06T21:17:34.741Z,99948.84
2022-12-06T21:20:03.373Z,99947.19
2022-12-06T21:22:30.736Z,99949.00
2022-12-06T21:24:57.463Z,99951.16
2022-12-06T21:27:24.652Z,99954.03
2022-12-06T21:29:51.392Z,99949.16
2022-12-06T21:32:18.453Z,99952.81
2022-12-06T21:34:46.687Z,99948.31
2022-12-06T21:37:15.250Z,99953.31
2022-12-06T21:39:42.045Z,99953.97
2022-12-06T21:42:08.813Z,99956.97
2022-12-06T21:44:36.304Z,99958.09
2022-12-06T21:47:03.284Z,99957.13
2022-12-06T21:49:29.987Z,99961.81
2022-12-06T21:52:01.252Z,99964.13
2022-12-06T21:54:34.120Z,99963.63
2022-12-06T21:57:00.879Z,99969.16
2022-12-06T21:59:27.989Z,99961.81
2022-12-06T22:01:54.938Z,99960.00
2022-12-06T22:04:22.057Z,99962.31
2022-12-06T22:06:48.802Z,99961.66
2022-12-06T22:09:15.661Z,99975.19
2022-12-06T22:11:44.148Z,99962.31
2022-12-06T22:14:11.387Z,99974.50
2022-12-06T22:16:41.310Z,99977.69
2022-12-06T22:19:08.221Z,99969.31
2022-12-06T22:21:35.820Z,99968.94
2022-12-06T22:24:02.656Z,99971.81
2022-12-06T22:26:31.045Z,99972.63
2022-12-06T22:29:00.092Z,99973.13
2022-12-06T22:31:29.866Z,99970.78
2022-12-06T22:33:57.911Z,99973.22
2022-12-06T22:36:25.548Z,99963.38
2022-12-06T22:38:54.627Z,99963.47
2022-12-06T22:41:22.717Z,99960.16
2022-12-06T22:43:51.903Z,99958.06
2022-12-06T22:46:22.133Z,99963.06
2022-12-06T22:48:49.845Z,99966.56
2022-12-06T22:51:19.974Z,99956.69
2022-12-06T22:53:51.845Z,99949.34
2022-12-06T22:56:19.121Z,99947.53
2022-12-06T22:58:45.999Z,99950.72
2022-12-06T23:01:17.067Z,99947.00
2022-12-06T23:03:47.980Z,99958.41
2022-12-06T23:06:17.410Z,99957.19
2022-12-06T23:08:45.159Z,99956.34
2022-12-06T23:11:16.563Z,99962.03
2022-12-06T23:13:43.538Z,99955.38
2022-12-06T23:16:14.640Z,99966.56
2022-12-06T23:18:42.562Z,99971.63
2022-12-06T23:21:14.060Z,99965.63
2022-12-06T23:23:44.592Z,99965.47
2022-12-06T23:26:14.190Z,99966.50
2022-12-06T23:28:41.637Z,99947.47
2022-12-06T23:31:13.550Z,99949.13
2022-12-06T23:33:41.427Z,99949.78
2022-12-06T23:36:13.210Z,99947.44
2022-12-06T23:38:40.521Z,99941.28
2022-12-06T23:41:11.121Z,99945.59
2022-12-06T23:43:39.350Z,99946.09
2022-12-06T23:46:08.663Z,99948.47
2022-12-06T23:48:36.396Z,99949.16
2022-12-06T23:51:07.044Z,99946.81
2022-12-06T23:53:35.971Z,99948.47
2022-12-06T23:56:07.009Z,99950.47
2022-12-06T23:58:34.297Z,99946.63
